Time;durP1;ratioP1;P1;durP2;ratioP2;P2;SDS_P1;SDS_P2;PMS_P1;PMS_P2;Temp;Humidity;BMP_temperature;BMP_pressure;BME280_temperature;BME280_humidity;BME280_pressure;Samples;Min_cycle;Max_cycle;Signal;HPM_P1;HPM_P2
2023/09/09 00:02:01;;;;;;;7.70;6.80;;;;;;;22.00;72.59;101614.31;6106717;28;20240;-67
2023/09/09 00:05:22;;;;;;;9.02;7.32;;;;;;;21.89;72.84;101613.94;6107529;28;20239;-67
2023/09/09 00:08:44;;;;;;;6.93;6.22;;;;;;;21.87;72.87;101618.78;6099639;28;20243;-67
2023/09/09 00:12:06;;;;;;;7.35;6.22;;;;;;;21.83;73.23;101615.56;6109223;28;20643;-67
2023/09/09 00:15:29;;;;;;;9.52;6.70;;;;;;;21.75;73.55;101614.78;6103042;28;20240;-67
2023/09/09 00:18:51;;;;;;;7.95;7.25;;;;;;;21.67;74.09;101610.25;6104385;28;20235;-68
2023/09/09 00:22:12;;;;;;;7.85;7.05;;;;;;;21.49;74.21;101605.16;6104763;28;20705;-67
2023/09/09 00:25:35;;;;;;;7.65;6.90;;;;;;;21.39;74.83;101598.22;6101626;29;20240;-66
2023/09/09 00:28:56;;;;;;;7.32;6.22;;;;;;;21.42;74.83;101595.13;6081393;28;20319;-67
2023/09/09 00:32:16;;;;;;;8.65;7.05;;;;;;;21.45;74.61;101591.97;6109048;29;22048;-67
2023/09/09 00:35:38;;;;;;;7.00;6.20;;;;;;;21.40;74.96;101600.78;6102254;29;20248;-67
2023/09/09 00:39:03;;;;;;;9.10;8.05;;;;;;;21.50;75.00;101589.53;6095359;29;20335;-67
2023/09/09 00:42:26;;;;;;;8.40;7.57;;;;;;;21.50;74.90;101597.78;6097936;28;22144;-67
2023/09/09 00:45:47;;;;;;;8.65;6.63;;;;;;;21.44;74.58;101595.78;6104001;29;20626;-67
2023/09/09 00:49:08;;;;;;;7.07;6.40;;;;;;;21.37;74.73;101589.34;6108450;28;20244;-67
2023/09/09 00:52:29;;;;;;;7.57;6.88;;;;;;;21.25;74.92;101590.84;6099848;28;20235;-66
2023/09/09 00:55:50;;;;;;;7.30;6.60;;;;;;;21.06;75.31;101592.25;6099062;29;20227;-67
2023/09/09 00:59:12;;;;;;;6.88;6.15;;;;;;;21.06;76.17;101591.41;6118090;28;20243;-67
2023/09/09 01:02:33;;;;;;;7.95;7.25;;;;;;;21.10;76.43;101590.84;6117372;28;20243;-68
2023/09/09 01:05:56;;;;;;;7.93;6.85;;;;;;;21.04;76.14;101582.50;6093134;28;20231;-67
2023/09/09 01:09:17;;;;;;;8.60;7.40;;;;;;;21.07;76.40;101579.41;6088437;28;20616;-68
2023/09/09 01:12:38;;;;;;;6.85;6.25;;;;;;;21.02;76.50;101576.31;6103918;29;20227;-67
2023/09/09 01:16:01;;;;;;;7.93;7.20;;;;;;;20.97;76.54;101573.28;6096781;29;20236;-68
2023/09/09 01:19:24;;;;;;;8.88;6.93;;;;;;;20.86;77.00;101569.09;6103084;28;20250;-67
2023/09/09 01:22:49;;;;;;;8.05;7.20;;;;;;;20.93;76.51;101574.69;6102610;28;20276;-67
2023/09/09 01:26:10;;;;;;;6.85;6.22;;;;;;;20.97;76.81;101576.00;6105539;28;20247;-67
2023/09/09 01:29:31;;;;;;;7.60;6.90;;;;;;;21.01;76.66;101572.72;6106729;28;20236;-68
2023/09/09 01:32:52;;;;;;;8.43;7.05;;;;;;;21.03;76.18;101570.69;6102456;28;20518;-67
2023/09/09 01:36:13;;;;;;;7.18;6.45;;;;;;;20.90;76.50;101573.19;6104201;29;20239;-67
2023/09/09 01:39:35;;;;;;;8.18;7.47;;;;;;;20.94;76.46;101579.16;6099934;28;20735;-68
2023/09/09 01:42:56;;;;;;;7.55;6.85;;;;;;;20.93;76.83;101571.94;6102187;29;20318;-67
2023/09/09 01:46:18;;;;;;;10.20;7.32;;;;;;;20.99;76.41;101568.44;6104022;28;20235;-66
2023/09/09 01:49:39;;;;;;;7.40;6.50;;;;;;;21.00;76.29;101575.66;6101183;28;20252;-68
2023/09/09 01:53:00;;;;;;;8.02;7.10;;;;;;;20.84;76.81;101570.34;6106392;29;20615;-67
2023/09/09 01:56:22;;;;;;;12.85;7.18;;;;;;;20.67;76.89;101564.97;6105031;29;20224;-67
2023/09/09 01:59:43;;;;;;;6.18;5.57;;;;;;;20.85;76.80;101569.28;6106152;29;20235;-68
2023/09/09 02:03:04;;;;;;;6.65;6.00;;;;;;;20.77;76.72;101564.75;6113938;28;20259;-67
2023/09/09 02:06:27;;;;;;;6.93;6.32;;;;;;;20.50;77.03;101570.81;6105107;29;20228;-67
2023/09/09 02:09:48;;;;;;;6.40;5.85;;;;;;;20.65;77.52;101572.53;6100787;28;20232;-67
2023/09/09 02:13:10;;;;;;;6.15;5.65;;;;;;;20.75;77.07;101571.44;6105082;28;20232;-68
2023/09/09 02:16:31;;;;;;;6.70;6.03;;;;;;;20.82;76.39;101569.69;6098890;28;20252;-67
2023/09/09 02:19:55;;;;;;;7.25;6.38;;;;;;;20.87;76.10;101568.06;6102224;28;20303;-66
2023/09/09 02:23:16;;;;;;;7.38;6.63;;;;;;;20.81;76.27;101570.69;6102730;28;20783;-67
2023/09/09 02:26:37;;;;;;;8.88;6.05;;;;;;;20.57;76.51;101569.03;6100656;28;20239;-67
2023/09/09 02:29:59;;;;;;;7.65;6.95;;;;;;;20.46;76.97;101561.25;6103951;28;20311;-68
2023/09/09 02:33:20;;;;;;;11.18;7.03;;;;;;;20.51;76.93;101559.66;6104408;28;20240;-68
2023/09/09 02:36:45;;;;;;;6.57;5.57;;;;;;;20.65;76.76;101558.84;6105961;28;20239;-67
2023/09/09 02:40:07;;;;;;;6.93;6.10;;;;;;;20.69;76.20;101560.16;6102224;28;20680;-67
2023/09/09 02:43:28;;;;;;;11.45;6.40;;;;;;;20.74;75.90;101565.09;6103096;29;20223;-68
2023/09/09 02:46:51;;;;;;;7.35;6.60;;;;;;;20.69;76.06;101557.44;6101953;28;20231;-66
2023/09/09 02:50:12;;;;;;;8.13;7.35;;;;;;;20.63;76.25;101558.16;6105584;29;20236;-67
2023/09/09 02:53:33;;;;;;;10.75;6.45;;;;;;;20.66;75.82;101551.47;6121774;28;20224;-67
2023/09/09 02:56:54;;;;;;;7.80;6.82;;;;;;;20.23;76.47;101554.91;6104472;28;20231;-68
2023/09/09 03:00:15;;;;;;;7.15;6.55;;;;;;;20.31;76.94;101554.84;6108785;28;20236;-67
2023/09/09 03:03:37;;;;;;;8.02;6.50;;;;;;;20.30;77.30;101556.75;6108046;28;20240;-67
2023/09/09 03:06:58;;;;;;;7.85;6.68;;;;;;;20.42;76.90;101546.22;6106958;28;20228;-67
2023/09/09 03:10:20;;;;;;;9.80;6.28;;;;;;;20.26;77.45;101552.66;6105917;29;20279;-67
2023/09/09 03:13:41;;;;;;;7.43;6.70;;;;;;;20.46;76.85;101553.03;6103742;29;22442;-68
2023/09/09 03:17:02;;;;;;;7.60;6.90;;;;;;;20.44;76.63;101546.88;6115824;28;20256;-67
2023/09/09 03:20:25;;;;;;;6.68;6.07;;;;;;;20.56;76.63;101548.16;6120134;28;20255;-67
2023/09/09 03:23:46;;;;;;;6.07;5.47;;;;;;;20.48;77.06;101549.09;6117338;28;20239;-68
2023/09/09 03:27:07;;;;;;;7.43;6.25;;;;;;;20.52;76.43;101544.06;6102199;28;20240;-67
2023/09/09 03:30:28;;;;;;;7.15;6.43;;;;;;;20.50;76.51;101543.41;6100288;28;20258;-67
2023/09/09 03:33:49;;;;;;;11.82;10.63;;;;;;;20.49;76.70;101544.44;6102170;28;20260;-68
2023/09/09 03:37:11;;;;;;;9.80;8.90;;;;;;;20.46;76.61;101545.66;6102515;29;20610;-67
2023/09/09 03:40:32;;;;;;;7.15;6.55;;;;;;;20.43;76.61;101554.25;6097295;28;20717;-67
2023/09/09 03:43:53;;;;;;;7.97;7.28;;;;;;;20.19;76.89;101559.88;6103742;29;20326;-67
2023/09/09 03:47:14;;;;;;;7.93;7.13;;;;;;;20.00;77.74;101562.22;6104230;28;20373;-67
2023/09/09 03:50:35;;;;;;;7.05;6.45;;;;;;;20.03;77.68;101556.38;6103579;28;20236;-67
2023/09/09 03:53:58;;;;;;;7.45;6.63;;;;;;;20.09;77.98;101561.16;6105833;29;20232;-66
2023/09/09 03:57:19;;;;;;;8.02;6.78;;;;;;;20.14;77.83;101562.31;6098878;28;20323;-67
2023/09/09 04:00:40;;;;;;;7.63;6.93;;;;;;;20.10;77.67;101562.84;6119435;28;20248;-68
2023/09/09 04:04:00;;;;;;;7.38;6.57;;;;;;;19.98;78.33;101565.16;6100645;29;20512;-67
2023/09/09 04:07:22;;;;;;;7.70;7.00;;;;;;;19.81;78.60;101560.81;6104297;28;20216;-68
2023/09/09 04:10:46;;;;;;;6.97;6.38;;;;;;;20.05;78.21;101557.09;6103632;29;20236;-66
2023/09/09 04:14:08;;;;;;;9.75;8.80;;;;;;;20.14;77.88;101556.84;6104133;28;20366;-67
2023/09/09 04:17:29;;;;;;;7.03;6.32;;;;;;;19.76;77.60;101560.47;6101550;29;20236;-67
2023/09/09 04:20:50;;;;;;;7.50;6.75;;;;;;;20.08;77.84;101552.09;6095366;28;20228;-66
2023/09/09 04:24:11;;;;;;;8.90;8.00;;;;;;;20.29;77.33;101555.06;6114969;28;20240;-67
2023/09/09 04:27:33;;;;;;;7.38;6.57;;;;;;;20.20;76.95;101556.13;6112791;28;20235;-68
2023/09/09 04:30:54;;;;;;;9.75;7.55;;;;;;;20.00;77.53;101557.63;6119499;28;20535;-67
2023/09/09 04:34:16;;;;;;;8.50;7.43;;;;;;;20.09;77.55;101561.16;6118732;28;20564;-66
2023/09/09 04:37:37;;;;;;;7.47;6.72;;;;;;;19.99;77.26;101561.38;6113056;28;21250;-67
2023/09/09 04:40:58;;;;;;;8.57;7.05;;;;;;;20.07;77.54;101557.75;6100876;28;20379;-67
2023/09/09 04:44:20;;;;;;;7.80;7.10;;;;;;;20.05;77.02;101563.38;6117383;28;20308;-67
2023/09/09 04:47:41;;;;;;;7.70;6.90;;;;;;;19.86;77.48;101555.63;6104816;28;21743;-67
2023/09/09 04:51:03;;;;;;;7.10;6.40;;;;;;;19.93;77.82;101553.88;6096669;28;20323;-67
2023/09/09 04:54:23;;;;;;;10.00;9.20;;;;;;;19.95;77.97;101560.03;6103725;29;20573;-68
2023/09/09 04:57:44;;;;;;;8.93;7.53;;;;;;;20.12;77.49;101560.78;6106545;28;20507;-67
2023/09/09 05:01:09;;;;;;;9.73;8.73;;;;;;;20.06;76.60;101561.50;6099528;28;20235;-67
2023/09/09 05:04:30;;;;;;;7.07;6.45;;;;;;;20.05;76.83;101563.38;6104623;29;20232;-67
2023/09/09 05:07:51;;;;;;;6.80;5.85;;;;;;;20.20;76.93;101560.75;6118385;28;20674;-67
2023/09/09 05:11:12;;;;;;;9.13;6.72;;;;;;;20.11;76.09;101559.91;6104581;28;20309;-67
2023/09/09 05:14:34;;;;;;;11.82;7.95;;;;;;;20.10;76.18;101568.31;6099828;29;20235;-67
2023/09/09 05:17:57;;;;;;;7.43;6.65;;;;;;;19.52;77.73;101564.19;6093310;29;20318;-67
2023/09/09 05:21:18;;;;;;;8.50;7.47;;;;;;;19.86;77.68;101566.56;6095632;29;20265;-67
2023/09/09 05:24:39;;;;;;;6.20;5.70;;;;;;;19.92;77.67;101568.63;6100692;29;20595;-67
2023/09/09 05:28:01;;;;;;;8.10;7.03;;;;;;;19.56;78.31;101567.41;6112361;28;20235;-68
2023/09/09 05:31:22;;;;;;;7.53;6.82;;;;;;;19.73;78.40;101575.34;6098700;28;20242;-68
2023/09/09 05:34:44;;;;;;;8.30;7.50;;;;;;;19.83;77.44;101562.34;6101403;29;20248;-68
2023/09/09 05:38:05;;;;;;;6.28;5.78;;;;;;;20.10;77.26;101571.06;6117121;28;20228;-67
2023/09/09 05:41:28;;;;;;;8.65;7.57;;;;;;;19.75;76.99;101567.00;6073084;29;20232;-67
2023/09/09 05:44:48;;;;;;;7.93;6.93;;;;;;;20.01;77.48;101569.41;6105104;29;20236;-66
2023/09/09 05:48:09;;;;;;;7.63;6.93;;;;;;;19.67;77.75;101580.72;6101081;29;20239;-67
2023/09/09 05:51:32;;;;;;;9.55;7.47;;;;;;;19.89;78.34;101574.44;6103588;28;20236;-67
2023/09/09 05:54:52;;;;;;;7.60;6.55;;;;;;;20.05;77.92;101568.03;6100081;28;20243;-67
2023/09/09 05:58:13;;;;;;;8.82;8.05;;;;;;;20.02;77.51;101568.38;6093841;29;20235;-66
2023/09/09 06:01:35;;;;;;;7.43;6.72;;;;;;;19.94;77.37;101566.56;6080796;29;20232;-67
2023/09/09 06:04:56;;;;;;;7.70;7.00;;;;;;;20.45;76.43;101563.13;6098459;29;20235;-67
2023/09/09 06:08:18;;;;;;;7.60;6.90;;;;;;;20.21;75.42;101570.69;6072960;29;20231;-67
2023/09/09 06:11:40;;;;;;;12.88;6.90;;;;;;;20.34;75.78;101574.50;6111259;28;20231;-67
2023/09/09 06:15:00;;;;;;;7.45;6.85;;;;;;;20.43;75.63;101567.94;6097115;28;20228;-67
2023/09/09 06:18:22;;;;;;;7.28;6.53;;;;;;;20.48;75.74;101570.13;6116544;28;20626;-67
2023/09/09 06:21:44;;;;;;;7.22;6.53;;;;;;;20.44;75.91;101577.03;6104597;28;20239;-66
2023/09/09 06:25:08;;;;;;;8.70;7.32;;;;;;;20.59;75.01;101586.13;6114604;28;20235;-67
2023/09/09 06:28:30;;;;;;;7.10;6.45;;;;;;;20.57;75.06;101582.72;6117089;28;20232;-68
2023/09/09 06:31:51;;;;;;;12.55;10.63;;;;;;;20.92;74.61;101582.09;6108335;28;20766;-68
2023/09/09 06:35:12;;;;;;;7.57;6.88;;;;;;;21.01;73.59;101585.56;6109037;28;20334;-68
2023/09/09 06:38:33;;;;;;;9.25;7.18;;;;;;;20.87;73.73;101575.44;6092977;28;20227;-67
2023/09/09 06:41:55;;;;;;;10.48;7.03;;;;;;;20.76;74.06;101582.22;6101056;29;20779;-68
2023/09/09 06:45:21;;;;;;;8.68;7.80;;;;;;;21.20;73.33;101585.94;6107864;29;20327;-68
2023/09/09 06:48:42;;;;;;;7.65;7.00;;;;;;;21.36;72.12;101590.41;6096059;29;20239;-67
2023/09/09 06:52:04;;;;;;;8.65;7.85;;;;;;;21.69;71.91;101596.34;6090753;29;20231;-67
2023/09/09 06:55:24;;;;;;;7.68;6.90;;;;;;;21.84;71.12;101598.03;6103614;29;20322;-66
2023/09/09 06:58:47;;;;;;;8.88;7.75;;;;;;;21.94;70.38;101592.25;6094216;28;20239;-67
2023/09/09 07:02:09;;;;;;;7.80;6.80;;;;;;;21.56;69.60;101594.25;6082981;28;20647;-68
2023/09/09 07:05:31;;;;;;;7.35;6.75;;;;;;;21.79;69.67;101599.63;6095420;28;20228;-67
2023/09/09 07:08:53;;;;;;;7.38;6.55;;;;;;;21.97;68.64;101592.72;6086128;28;20256;-65
2023/09/09 07:12:14;;;;;;;7.78;7.03;;;;;;;21.65;69.35;101600.50;6094708;28;20235;-66
2023/09/09 07:15:37;;;;;;;9.95;8.05;;;;;;;22.09;68.93;101596.66;6099097;28;20263;-66
2023/09/09 07:18:58;;;;;;;9.30;8.10;;;;;;;22.41;67.84;101591.72;6095762;28;20963;-65
2023/09/09 07:22:19;;;;;;;7.30;6.40;;;;;;;22.42;67.76;101593.44;6097704;28;20246;-65
2023/09/09 07:25:40;;;;;;;10.88;7.32;;;;;;;22.66;67.49;101604.91;6098480;28;20240;-65
2023/09/09 07:29:01;;;;;;;7.57;6.15;;;;;;;22.77;66.32;101600.78;6103591;28;20613;-66
2023/09/09 07:32:23;;;;;;;14.10;7.35;;;;;;;22.76;66.39;101604.59;6112579;28;20227;-65
2023/09/09 07:35:44;;;;;;;7.15;6.55;;;;;;;22.75;67.39;101597.38;6111033;28;20235;-65
2023/09/09 07:39:06;;;;;;;7.18;6.57;;;;;;;22.91;66.26;101602.59;6108871;28;20545;-65
2023/09/09 07:42:27;;;;;;;7.60;6.90;;;;;;;22.68;66.46;101597.31;6110505;28;20244;-66
2023/09/09 07:45:48;;;;;;;9.43;8.10;;;;;;;22.69;66.06;101599.03;6110911;29;20236;-66
2023/09/09 07:49:10;;;;;;;8.35;7.55;;;;;;;23.00;65.46;101606.91;6105668;28;20228;-66
2023/09/09 07:52:31;;;;;;;7.72;6.93;;;;;;;23.41;64.66;101605.13;6112561;28;20220;-65
2023/09/09 07:55:52;;;;;;;8.38;7.57;;;;;;;23.50;64.26;101603.06;6102962;28;20240;-65
2023/09/09 07:59:13;;;;;;;8.25;7.45;;;;;;;23.60;64.65;101604.41;6098278;28;20240;-66
2023/09/09 08:02:35;;;;;;;9.93;7.45;;;;;;;23.67;64.15;101605.28;6087641;28;20255;-67
2023/09/09 08:06:02;;;;;;;9.05;8.15;;;;;;;23.27;64.20;101600.56;6105599;28;20609;-66
2023/09/09 08:09:23;;;;;;;10.20;8.13;;;;;;;23.62;63.95;101602.28;6091569;28;20240;-66
2023/09/09 08:12:44;;;;;;;10.15;7.47;;;;;;;23.26;64.17;101604.34;6104356;28;20252;-66
2023/09/09 08:16:05;;;;;;;9.13;7.68;;;;;;;23.36;64.15;101599.41;6113479;28;20266;-65
2023/09/09 08:19:25;;;;;;;8.50;7.68;;;;;;;23.68;63.99;101606.13;6108794;28;20252;-66
2023/09/09 08:22:49;;;;;;;7.25;6.55;;;;;;;23.93;63.12;101603.72;6111678;28;20223;-66
2023/09/09 08:26:11;;;;;;;8.30;6.93;;;;;;;23.75;63.06;101607.03;6110801;28;20252;-66
2023/09/09 08:29:31;;;;;;;8.10;7.07;;;;;;;23.70;63.18;101604.00;6110369;28;20610;-66
2023/09/09 08:32:52;;;;;;;8.27;7.47;;;;;;;23.74;63.51;101599.78;6106037;28;21153;-65
2023/09/09 08:36:14;;;;;;;7.50;6.43;;;;;;;23.48;63.50;101605.16;6108980;28;20233;-67
2023/09/09 08:39:37;;;;;;;7.30;6.57;;;;;;;24.08;63.81;101604.44;6111512;28;20355;-66
2023/09/09 08:43:09;;;;;;;8.48;6.00;;;;;;;24.36;62.29;101605.16;6115407;28;20495;-65
2023/09/09 08:46:30;;;;;;;7.35;6.65;;;;;;;24.52;62.23;101610.28;6102319;29;20270;-66
2023/09/09 08:49:54;;;;;;;7.53;6.68;;;;;;;24.22;62.84;101614.47;6109901;29;20251;-67
2023/09/09 08:53:16;;;;;;;10.43;6.70;;;;;;;24.60;62.63;101612.84;6109389;28;20228;-67
2023/09/09 08:56:39;;;;;;;7.78;6.30;;;;;;;24.84;61.51;101616.94;6100450;28;20228;-66
2023/09/09 09:00:03;;;;;;;8.05;7.22;;;;;;;24.93;62.03;101610.16;6109225;28;20482;-67
2023/09/09 09:03:25;;;;;;;8.00;6.72;;;;;;;24.90;61.26;101611.44;6104057;28;20251;-66
2023/09/09 09:06:48;;;;;;;10.18;7.50;;;;;;;25.05;61.24;101608.47;6102247;29;20816;-66
2023/09/09 09:10:09;;;;;;;8.02;7.05;;;;;;;25.18;60.80;101608.44;6097545;28;20306;-66
2023/09/09 09:13:32;;;;;;;7.00;6.32;;;;;;;24.96;61.52;101616.09;6102003;28;20330;-66
2023/09/09 09:16:55;;;;;;;7.80;7.05;;;;;;;24.90;61.66;101613.34;6096800;28;20835;-66
2023/09/09 09:20:26;;;;;;;8.10;7.32;;;;;;;25.36;61.65;101603.13;6102130;29;20582;-66
2023/09/09 09:23:47;;;;;;;7.88;7.10;;;;;;;25.33;60.85;101601.63;6102566;29;20603;-66
2023/09/09 09:27:10;;;;;;;8.45;6.45;;;;;;;25.21;61.32;101611.63;6094381;28;20235;-66
2023/09/09 09:30:34;;;;;;;7.45;6.75;;;;;;;25.56;61.35;101606.69;6096160;28;20680;-67
2023/09/09 09:33:56;;;;;;;6.85;6.18;;;;;;;25.44;59.88;101605.69;6103203;28;20232;-66
2023/09/09 09:37:17;;;;;;;7.45;6.05;;;;;;;25.55;60.64;101595.88;6111769;29;20236;-66
2023/09/09 09:40:40;;;;;;;8.38;6.05;;;;;;;26.02;59.50;101596.34;6098913;29;20236;-67
2023/09/09 09:44:01;;;;;;;6.82;6.22;;;;;;;26.68;58.39;101598.75;6099969;28;20340;-67
2023/09/09 09:47:23;;;;;;;7.95;5.95;;;;;;;26.24;58.27;101591.38;6097897;28;20771;-66
2023/09/09 09:50:53;;;;;;;5.82;5.32;;;;;;;26.69;57.64;101597.66;6091090;28;20571;-67
2023/09/09 09:54:17;;;;;;;6.85;5.78;;;;;;;27.09;57.54;101592.69;6090497;28;20235;-67
2023/09/09 09:57:38;;;;;;;6.03;5.35;;;;;;;27.20;56.82;101589.19;6030439;29;20271;-67
2023/09/09 10:01:02;;;;;;;8.43;5.75;;;;;;;27.59;56.57;101588.78;6084978;28;20236;-67
2023/09/09 10:04:26;;;;;;;7.00;6.05;;;;;;;27.65;56.31;101585.09;6075238;28;20314;-66
2023/09/09 10:07:52;;;;;;;5.72;5.22;;;;;;;27.33;56.19;101589.03;6063547;28;20244;-67
2023/09/09 10:11:18;;;;;;;5.28;4.75;;;;;;;27.65;55.22;101587.88;6087517;28;20310;-66
2023/09/09 10:14:39;;;;;;;5.93;5.13;;;;;;;27.81;55.27;101583.66;6102762;28;20495;-65
2023/09/09 10:18:01;;;;;;;5.47;4.47;;;;;;;28.23;54.23;101580.75;6099207;28;20318;-67
2023/09/09 10:21:26;;;;;;;5.55;4.82;;;;;;;27.92;54.74;101582.84;6099279;29;20235;-66
2023/09/09 10:24:49;;;;;;;6.40;5.65;;;;;;;27.98;54.69;101584.72;6103634;29;20513;-67
2023/09/09 10:28:11;;;;;;;5.80;5.20;;;;;;;28.60;52.96;101584.28;6102631;28;20243;-66
2023/09/09 10:31:33;;;;;;;5.50;5.00;;;;;;;28.64;52.88;101584.66;6113770;29;20235;-67
2023/09/09 10:34:54;;;;;;;5.13;4.65;;;;;;;28.93;52.77;101578.19;6104709;29;20315;-66
2023/09/09 10:38:17;;;;;;;5.22;4.75;;;;;;;29.12;52.76;101588.13;6113073;28;20545;-67
2023/09/09 10:41:38;;;;;;;5.40;4.90;;;;;;;29.03;53.20;101578.44;6112328;28;20235;-67
2023/09/09 10:45:28;;;;;;;5.50;4.63;;;;;;;29.76;52.19;101582.44;6107963;28;20613;-67
2023/09/09 10:48:48;;;;;;;6.75;5.25;;;;;;;30.48;50.83;101582.78;6109602;28;20243;-67
2023/09/09 10:52:30;;;;;;;5.47;4.97;;;;;;;31.90;48.43;101578.41;6102437;29;20228;-67
2023/09/09 10:55:54;;;;;;;4.72;4.20;;;;;;;30.99;48.45;101576.22;6102635;28;20236;-67
2023/09/09 10:59:17;;;;;;;5.20;4.70;;;;;;;30.96;48.42;101569.19;6101486;28;20252;-67
2023/09/09 11:02:46;;;;;;;6.10;4.97;;;;;;;31.60;48.30;101566.84;6093422;28;20232;-68
2023/09/09 11:06:10;;;;;;;5.80;4.85;;;;;;;32.66;45.80;101575.41;6089477;28;20325;-67
2023/09/09 11:09:31;;;;;;;4.72;4.30;;;;;;;35.23;41.33;101566.22;6101029;28;20620;-67
2023/09/09 11:12:58;;;;;;;5.25;4.75;;;;;;;37.11;38.64;101570.63;6110460;28;20605;-67
2023/09/09 11:16:27;;;;;;;7.75;5.03;;;;;;;40.75;33.79;101574.66;6107410;29;20232;-68
2023/09/09 11:19:49;;;;;;;5.90;4.68;;;;;;;41.31;32.41;101574.94;6101070;28;20227;-67
2023/09/09 11:23:10;;;;;;;5.38;4.93;;;;;;;41.63;31.26;101571.75;6096850;28;20239;-68
2023/09/09 11:26:31;;;;;;;5.82;4.78;;;;;;;42.12;30.89;101564.97;6098344;28;20318;-66
2023/09/09 11:29:54;;;;;;;5.38;4.80;;;;;;;41.25;31.38;101565.75;6104047;29;20248;-66
2023/09/09 11:33:21;;;;;;;6.75;4.45;;;;;;;39.10;34.59;101558.91;6109244;28;20228;-67
2023/09/09 11:36:43;;;;;;;4.43;4.03;;;;;;;41.39;31.91;101566.47;6100919;28;20227;-66
2023/09/09 11:40:05;;;;;;;5.82;3.83;;;;;;;39.53;33.33;101562.38;6105560;28;20231;-66
2023/09/09 11:43:26;;;;;;;8.63;3.30;;;;;;;42.61;30.04;101561.69;6110909;28;20247;-65
2023/09/09 11:46:49;;;;;;;4.45;4.05;;;;;;;43.75;29.04;101568.44;6105447;28;20231;-67
2023/09/09 11:50:10;;;;;;;4.13;3.83;;;;;;;43.96;29.19;101560.78;6113095;29;20243;-67
2023/09/09 11:53:31;;;;;;;3.53;3.22;;;;;;;44.12;29.05;101561.91;6109946;28;20243;-68
2023/09/09 11:56:52;;;;;;;4.63;3.72;;;;;;;44.53;28.17;101552.56;6105353;28;20559;-66
2023/09/09 12:00:22;;;;;;;5.07;4.43;;;;;;;45.41;28.06;101557.88;6106966;28;20243;-67
2023/09/09 12:03:44;;;;;;;3.45;3.22;;;;;;;45.72;28.53;101555.31;6103878;28;20242;-67
2023/09/09 12:07:07;;;;;;;4.57;4.18;;;;;;;45.42;27.93;101548.97;6098796;28;20235;-66
2023/09/09 12:10:31;;;;;;;5.13;4.30;;;;;;;45.53;27.91;101549.34;6110766;28;20350;-67
2023/09/09 12:13:53;;;;;;;4.22;3.40;;;;;;;43.51;29.21;101548.31;6110757;28;20231;-67
2023/09/09 12:17:14;;;;;;;5.68;3.70;;;;;;;43.59;28.64;101548.28;6113590;28;20612;-66
2023/09/09 12:20:36;;;;;;;4.15;3.80;;;;;;;41.78;30.46;101543.00;6111364;28;20238;-66
2023/09/09 12:23:58;;;;;;;3.35;3.05;;;;;;;43.90;28.53;101549.97;6116689;28;20230;-67
2023/09/09 12:27:20;;;;;;;6.30;4.00;;;;;;;45.02;27.52;101547.94;6114123;28;20228;-67
2023/09/09 12:30:42;;;;;;;3.75;3.45;;;;;;;44.33;28.12;101545.66;6116417;28;20645;-67
2023/09/09 12:34:03;;;;;;;3.75;3.45;;;;;;;44.89;27.56;101549.06;6117305;28;20231;-66
2023/09/09 12:37:25;;;;;;;4.70;4.40;;;;;;;42.39;29.76;101535.47;6111949;28;20232;-66
2023/09/09 12:40:50;;;;;;;4.47;4.07;;;;;;;38.72;32.29;101525.50;6111675;29;20635;-67
2023/09/09 12:44:11;;;;;;;3.70;3.40;;;;;;;42.76;29.32;101529.09;6115512;28;20235;-66
2023/09/09 12:47:31;;;;;;;6.32;5.72;;;;;;;43.01;28.34;101527.41;6109925;28;20230;-67
2023/09/09 12:50:52;;;;;;;8.68;4.97;;;;;;;43.71;28.66;101524.03;6109912;28;20862;-67
2023/09/09 12:54:14;;;;;;;4.72;4.32;;;;;;;44.19;27.23;101530.06;6094584;28;20232;-66
2023/09/09 12:57:35;;;;;;;4.25;3.95;;;;;;;42.53;28.77;101514.28;6102015;28;20234;-68
2023/09/09 13:00:56;;;;;;;5.30;3.88;;;;;;;40.92;29.95;101521.91;6109015;28;20239;-67
2023/09/09 13:04:17;;;;;;;4.80;4.47;;;;;;;40.37;31.40;101523.28;6095026;29;20256;-67
2023/09/09 13:07:38;;;;;;;3.58;3.28;;;;;;;43.05;28.95;101519.88;6101679;28;20235;-67
2023/09/09 13:11:00;;;;;;;3.75;3.45;;;;;;;42.63;28.62;101513.09;6116620;28;20239;-67
2023/09/09 13:14:21;;;;;;;5.65;3.97;;;;;;;42.15;29.38;101519.75;6126990;28;20523;-66
2023/09/09 13:17:41;;;;;;;4.55;3.63;;;;;;;42.27;29.52;101512.59;6104079;28;20243;-66
2023/09/09 13:21:03;;;;;;;6.35;3.97;;;;;;;42.75;28.13;101521.75;6116109;28;20354;-67
2023/09/09 13:24:24;;;;;;;5.18;4.60;;;;;;;42.91;28.59;101506.72;6107845;28;20345;-67
2023/09/09 13:27:46;;;;;;;4.45;3.85;;;;;;;41.54;29.75;101511.38;6100538;28;20227;-67
2023/09/09 13:31:07;;;;;;;4.10;3.78;;;;;;;43.71;29.18;101504.13;6098704;28;20232;-67
2023/09/09 13:34:28;;;;;;;10.20;4.22;;;;;;;44.86;27.07;101512.75;6103398;28;20326;-66
2023/09/09 13:37:49;;;;;;;4.30;3.90;;;;;;;44.47;26.44;101511.28;6099930;28;20323;-67
2023/09/09 13:41:09;;;;;;;5.30;4.90;;;;;;;42.86;27.81;101504.06;6106434;29;20450;-67
2023/09/09 13:44:32;;;;;;;4.57;4.00;;;;;;;42.57;28.22;101503.09;6078660;28;20231;-67
2023/09/09 13:47:53;;;;;;;4.88;3.72;;;;;;;43.68;27.16;101508.47;6100111;28;20247;-67
2023/09/09 13:51:14;;;;;;;4.15;3.70;;;;;;;43.93;27.41;101496.09;6093483;28;20239;-66
2023/09/09 13:54:35;;;;;;;3.67;3.30;;;;;;;39.32;30.33;101501.81;6105481;28;20244;-66
2023/09/09 13:57:56;;;;;;;3.13;2.83;;;;;;;40.28;28.53;101506.22;6100355;28;20243;-66
2023/09/09 14:01:18;;;;;;;3.65;3.33;;;;;;;38.41;29.98;101498.91;6105002;28;20236;-67
2023/09/09 14:04:39;;;;;;;4.55;3.88;;;;;;;40.05;28.76;101504.53;6102547;28;20239;-67
2023/09/09 14:08:00;;;;;;;3.67;3.28;;;;;;;41.02;27.77;101498.97;6100858;28;20234;-67
2023/09/09 14:11:21;;;;;;;3.80;3.50;;;;;;;42.27;26.96;101496.41;6103563;28;20286;-68
2023/09/09 14:14:42;;;;;;;3.65;3.42;;;;;;;41.78;27.26;101492.00;6101233;28;20240;-68
2023/09/09 14:18:04;;;;;;;3.75;3.45;;;;;;;41.79;27.73;101495.63;6098235;28;20239;-68
2023/09/09 14:21:25;;;;;;;5.00;4.55;;;;;;;41.52;27.60;101495.91;6102572;28;20228;-67
2023/09/09 14:24:46;;;;;;;3.83;3.53;;;;;;;40.31;27.29;101485.78;6101896;29;20231;-68
2023/09/09 14:28:07;;;;;;;4.95;3.70;;;;;;;40.86;28.52;101488.38;6092884;28;20299;-67
2023/09/09 14:31:28;;;;;;;3.83;3.22;;;;;;;40.27;29.40;101487.56;6094340;28;20235;-67
2023/09/09 14:34:50;;;;;;;5.65;3.58;;;;;;;39.91;29.29;101490.38;6108429;28;20687;-67
2023/09/09 14:38:11;;;;;;;4.72;3.65;;;;;;;38.61;31.23;101487.28;6107635;28;20236;-68
2023/09/09 14:41:32;;;;;;;3.58;3.35;;;;;;;37.36;31.79;101488.78;6092742;28;20652;-68
2023/09/09 14:44:53;;;;;;;5.35;4.95;;;;;;;35.41;34.27;101486.22;6111481;28;20535;-67
2023/09/09 14:48:15;;;;;;;4.00;3.70;;;;;;;36.80;33.10;101484.84;6114786;28;20645;-68
2023/09/09 14:51:37;;;;;;;4.50;4.20;;;;;;;36.74;32.94;101491.59;6096035;28;20326;-67
2023/09/09 14:54:58;;;;;;;5.53;4.70;;;;;;;36.96;34.05;101475.13;6121955;28;20306;-67
2023/09/09 14:58:19;;;;;;;4.88;4.53;;;;;;;36.78;33.94;101481.44;6119445;28;20231;-67
2023/09/09 15:01:39;;;;;;;4.40;3.20;;;;;;;36.65;34.08;101476.53;6104778;28;20240;-66
2023/09/09 15:05:00;;;;;;;4.38;3.85;;;;;;;36.55;34.37;101474.63;6106800;29;20244;-67
2023/09/09 15:08:22;;;;;;;5.75;4.55;;;;;;;35.60;34.67;101478.03;6112619;28;20249;-68
2023/09/09 15:11:43;;;;;;;3.70;3.40;;;;;;;35.57;35.18;101473.81;6102360;28;20264;-67
2023/09/09 15:15:05;;;;;;;3.80;3.50;;;;;;;35.48;35.51;101467.16;6120857;28;20569;-67
2023/09/09 15:18:26;;;;;;;3.10;2.90;;;;;;;35.90;35.35;101467.47;6098825;29;20698;-67
2023/09/09 15:21:47;;;;;;;4.63;4.03;;;;;;;36.18;36.14;101467.88;6091763;28;20239;-67
2023/09/09 15:25:09;;;;;;;4.72;3.97;;;;;;;36.13;35.87;101465.97;6115787;28;20232;-66
2023/09/09 15:28:30;;;;;;;4.82;4.07;;;;;;;36.12;36.59;101464.28;6112599;29;20235;-67
2023/09/09 15:31:51;;;;;;;4.38;4.07;;;;;;;35.20;36.41;101468.59;6107519;28;20239;-67
2023/09/09 15:35:12;;;;;;;6.68;4.20;;;;;;;35.51;36.46;101469.34;6116766;28;20232;-66
2023/09/09 15:38:35;;;;;;;4.53;3.60;;;;;;;35.29;37.13;101466.91;6105617;28;20240;-67